sensor_id;sensor_type;location;lat;lon;timestamp;P1;durP1;ratioP1;P2;durP2;ratioP2
78410;SDS011;67706;51.074;-1.796;2023-11-19T00:01:32;21.58;;;3.35;;
78410;SDS011;67706;51.074;-1.796;2023-11-19T00:03:59;19.23;;;3.28;;
78410;SDS011;67706;51.074;-1.796;2023-11-19T00:06:25;20.17;;;3.25;;
78410;SDS011;67706;51.074;-1.796;2023-11-19T00:08:54;17.25;;;2.83;;
78410;SDS011;67706;51.074;-1.796;2023-11-19T00:11:21;16.00;;;3.13;;
78410;SDS011;67706;51.074;-1.796;2023-11-19T00:13:47;17.30;;;2.42;;
78410;SDS011;67706;51.074;-1.796;2023-11-19T00:16:14;22.13;;;2.92;;
78410;SDS011;67706;51.074;-1.796;2023-11-19T00:18:41;18.52;;;2.72;;
78410;SDS011;67706;51.074;-1.796;2023-11-19T00:21:08;15.52;;;3.13;;
78410;SDS011;67706;51.074;-1.796;2023-11-19T00:23:35;17.45;;;2.83;;
78410;SDS011;67706;51.074;-1.796;2023-11-19T00:26:03;23.95;;;3.10;;
78410;SDS011;67706;51.074;-1.796;2023-11-19T00:28:31;17.83;;;3.10;;
78410;SDS011;67706;51.074;-1.796;2023-11-19T00:30:59;21.08;;;2.90;;
78410;SDS011;67706;51.074;-1.796;2023-11-19T00:33:25;18.08;;;3.17;;
78410;SDS011;67706;51.074;-1.796;2023-11-19T00:35:52;18.88;;;2.63;;
78410;SDS011;67706;51.074;-1.796;2023-11-19T00:38:18;22.02;;;3.42;;
78410;SDS011;67706;51.074;-1.796;2023-11-19T00:40:45;21.95;;;3.15;;
78410;SDS011;67706;51.074;-1.796;2023-11-19T00:43:13;15.85;;;2.33;;
78410;SDS011;67706;51.074;-1.796;2023-11-19T00:45:40;17.25;;;2.75;;
78410;SDS011;67706;51.074;-1.796;2023-11-19T00:48:08;17.75;;;2.70;;
78410;SDS011;67706;51.074;-1.796;2023-11-19T00:50:34;24.13;;;3.60;;
78410;SDS011;67706;51.074;-1.796;2023-11-19T00:53:01;20.50;;;3.00;;
78410;SDS011;67706;51.074;-1.796;2023-11-19T00:55:28;20.20;;;3.13;;
78410;SDS011;67706;51.074;-1.796;2023-11-19T00:57:55;23.42;;;3.50;;
78410;SDS011;67706;51.074;-1.796;2023-11-19T01:00:24;20.05;;;2.63;;
78410;SDS011;67706;51.074;-1.796;2023-11-19T01:02:52;17.02;;;2.33;;
78410;SDS011;67706;51.074;-1.796;2023-11-19T01:05:19;16.58;;;2.90;;
78410;SDS011;67706;51.074;-1.796;2023-11-19T01:07:47;28.77;;;3.08;;
78410;SDS011;67706;51.074;-1.796;2023-11-19T01:10:15;23.95;;;3.33;;
78410;SDS011;67706;51.074;-1.796;2023-11-19T01:12:43;21.20;;;2.50;;
78410;SDS011;67706;51.074;-1.796;2023-11-19T01:15:10;26.10;;;3.55;;
78410;SDS011;67706;51.074;-1.796;2023-11-19T01:17:39;24.95;;;2.35;;
78410;SDS011;67706;51.074;-1.796;2023-11-19T01:20:06;16.48;;;2.58;;
78410;SDS011;67706;51.074;-1.796;2023-11-19T01:22:37;18.98;;;2.78;;
78410;SDS011;67706;51.074;-1.796;2023-11-19T01:25:04;17.33;;;2.95;;
78410;SDS011;67706;51.074;-1.796;2023-11-19T01:27:31;16.02;;;2.97;;
78410;SDS011;67706;51.074;-1.796;2023-11-19T01:29:59;16.35;;;2.85;;
78410;SDS011;67706;51.074;-1.796;2023-11-19T01:32:27;18.00;;;2.75;;
78410;SDS011;67706;51.074;-1.796;2023-11-19T01:34:55;22.17;;;3.30;;
78410;SDS011;67706;51.074;-1.796;2023-11-19T01:37:21;23.60;;;3.03;;
78410;SDS011;67706;51.074;-1.796;2023-11-19T01:39:48;20.52;;;2.75;;
78410;SDS011;67706;51.074;-1.796;2023-11-19T01:42:15;13.80;;;2.45;;
78410;SDS011;67706;51.074;-1.796;2023-11-19T01:44:41;13.10;;;2.15;;
78410;SDS011;67706;51.074;-1.796;2023-11-19T01:47:08;22.77;;;2.58;;
78410;SDS011;67706;51.074;-1.796;2023-11-19T01:49:35;15.65;;;2.60;;
78410;SDS011;67706;51.074;-1.796;2023-11-19T01:52:03;17.85;;;2.63;;
78410;SDS011;67706;51.074;-1.796;2023-11-19T01:54:31;23.17;;;3.25;;
78410;SDS011;67706;51.074;-1.796;2023-11-19T01:56:58;20.85;;;2.65;;
78410;SDS011;67706;51.074;-1.796;2023-11-19T01:59:26;17.73;;;2.67;;
78410;SDS011;67706;51.074;-1.796;2023-11-19T02:01:53;18.73;;;2.03;;
78410;SDS011;67706;51.074;-1.796;2023-11-19T02:04:20;20.38;;;2.88;;
78410;SDS011;67706;51.074;-1.796;2023-11-19T02:06:47;19.63;;;2.33;;
78410;SDS011;67706;51.074;-1.796;2023-11-19T02:09:17;14.60;;;1.95;;
78410;SDS011;67706;51.074;-1.796;2023-11-19T02:11:44;17.30;;;2.08;;
78410;SDS011;67706;51.074;-1.796;2023-11-19T02:14:14;18.90;;;2.60;;
78410;SDS011;67706;51.074;-1.796;2023-11-19T02:16:43;20.85;;;3.03;;
78410;SDS011;67706;51.074;-1.796;2023-11-19T02:19:10;28.42;;;3.83;;
78410;SDS011;67706;51.074;-1.796;2023-11-19T02:21:37;28.92;;;3.15;;
78410;SDS011;67706;51.074;-1.796;2023-11-19T02:24:05;16.60;;;2.45;;
78410;SDS011;67706;51.074;-1.796;2023-11-19T02:26:36;16.42;;;2.83;;
78410;SDS011;67706;51.074;-1.796;2023-11-19T02:29:11;19.70;;;4.93;;
78410;SDS011;67706;51.074;-1.796;2023-11-19T02:31:39;26.60;;;3.30;;
78410;SDS011;67706;51.074;-1.796;2023-11-19T02:34:05;26.73;;;4.47;;
78410;SDS011;67706;51.074;-1.796;2023-11-19T02:36:32;19.15;;;2.67;;
78410;SDS011;67706;51.074;-1.796;2023-11-19T02:38:59;11.82;;;2.33;;
78410;SDS011;67706;51.074;-1.796;2023-11-19T02:41:25;21.52;;;3.45;;
78410;SDS011;67706;51.074;-1.796;2023-11-19T02:43:52;9.77;;;1.77;;
78410;SDS011;67706;51.074;-1.796;2023-11-19T02:46:20;20.13;;;3.08;;
78410;SDS011;67706;51.074;-1.796;2023-11-19T02:48:47;21.77;;;2.80;;
78410;SDS011;67706;51.074;-1.796;2023-11-19T02:51:13;25.85;;;2.42;;
78410;SDS011;67706;51.074;-1.796;2023-11-19T02:53:40;19.17;;;3.45;;
78410;SDS011;67706;51.074;-1.796;2023-11-19T02:56:09;19.23;;;2.47;;
78410;SDS011;67706;51.074;-1.796;2023-11-19T02:58:44;18.02;;;2.22;;
78410;SDS011;67706;51.074;-1.796;2023-11-19T03:01:11;18.90;;;2.17;;
78410;SDS011;67706;51.074;-1.796;2023-11-19T03:03:49;18.60;;;2.88;;
78410;SDS011;67706;51.074;-1.796;2023-11-19T03:06:19;22.60;;;3.05;;
78410;SDS011;67706;51.074;-1.796;2023-11-19T03:08:47;15.93;;;1.85;;
78410;SDS011;67706;51.074;-1.796;2023-11-19T03:11:14;17.92;;;2.63;;
78410;SDS011;67706;51.074;-1.796;2023-11-19T03:13:40;19.17;;;2.60;;
78410;SDS011;67706;51.074;-1.796;2023-11-19T03:16:07;22.48;;;3.03;;
78410;SDS011;67706;51.074;-1.796;2023-11-19T03:18:35;19.08;;;2.75;;
78410;SDS011;67706;51.074;-1.796;2023-11-19T03:21:03;17.85;;;2.83;;
78410;SDS011;67706;51.074;-1.796;2023-11-19T03:23:29;28.15;;;2.88;;
78410;SDS011;67706;51.074;-1.796;2023-11-19T03:25:56;20.08;;;2.65;;
78410;SDS011;67706;51.074;-1.796;2023-11-19T03:28:23;21.45;;;2.53;;
78410;SDS011;67706;51.074;-1.796;2023-11-19T03:30:49;28.90;;;3.85;;
78410;SDS011;67706;51.074;-1.796;2023-11-19T03:33:18;26.05;;;3.70;;
78410;SDS011;67706;51.074;-1.796;2023-11-19T03:35:44;20.98;;;2.90;;
78410;SDS011;67706;51.074;-1.796;2023-11-19T03:38:12;15.57;;;2.30;;
78410;SDS011;67706;51.074;-1.796;2023-11-19T03:40:39;20.05;;;3.13;;
78410;SDS011;67706;51.074;-1.796;2023-11-19T03:43:06;18.05;;;2.28;;
78410;SDS011;67706;51.074;-1.796;2023-11-19T03:45:34;20.98;;;3.25;;
78410;SDS011;67706;51.074;-1.796;2023-11-19T03:48:01;19.85;;;2.65;;
78410;SDS011;67706;51.074;-1.796;2023-11-19T03:50:28;20.75;;;1.80;;
78410;SDS011;67706;51.074;-1.796;2023-11-19T03:52:54;20.00;;;2.55;;
78410;SDS011;67706;51.074;-1.796;2023-11-19T03:55:23;17.98;;;2.72;;
78410;SDS011;67706;51.074;-1.796;2023-11-19T03:57:48;16.17;;;1.95;;
78410;SDS011;67706;51.074;-1.796;2023-11-19T04:00:15;18.58;;;2.42;;
78410;SDS011;67706;51.074;-1.796;2023-11-19T04:02:42;20.90;;;3.10;;
78410;SDS011;67706;51.074;-1.796;2023-11-19T04:05:09;10.20;;;1.92;;
78410;SDS011;67706;51.074;-1.796;2023-11-19T04:07:36;15.07;;;2.05;;
78410;SDS011;67706;51.074;-1.796;2023-11-19T04:10:03;17.20;;;2.13;;
78410;SDS011;67706;51.074;-1.796;2023-11-19T04:12:31;20.40;;;2.65;;
78410;SDS011;67706;51.074;-1.796;2023-11-19T04:14:58;21.88;;;2.53;;
78410;SDS011;67706;51.074;-1.796;2023-11-19T04:17:24;13.35;;;1.63;;
78410;SDS011;67706;51.074;-1.796;2023-11-19T04:19:51;8.77;;;2.03;;
78410;SDS011;67706;51.074;-1.796;2023-11-19T04:22:18;18.73;;;2.33;;
78410;SDS011;67706;51.074;-1.796;2023-11-19T04:24:44;14.35;;;2.97;;
78410;SDS011;67706;51.074;-1.796;2023-11-19T04:27:11;20.90;;;2.42;;
78410;SDS011;67706;51.074;-1.796;2023-11-19T04:29:39;22.30;;;2.83;;
78410;SDS011;67706;51.074;-1.796;2023-11-19T04:32:06;18.83;;;3.05;;
78410;SDS011;67706;51.074;-1.796;2023-11-19T04:34:33;13.45;;;1.70;;
78410;SDS011;67706;51.074;-1.796;2023-11-19T04:36:59;11.73;;;2.60;;
78410;SDS011;67706;51.074;-1.796;2023-11-19T04:39:28;9.90;;;1.90;;
78410;SDS011;67706;51.074;-1.796;2023-11-19T04:41:55;13.07;;;2.75;;
78410;SDS011;67706;51.074;-1.796;2023-11-19T04:44:22;20.38;;;3.15;;
78410;SDS011;67706;51.074;-1.796;2023-11-19T04:46:50;12.68;;;1.85;;
78410;SDS011;67706;51.074;-1.796;2023-11-19T04:49:16;16.73;;;2.17;;
78410;SDS011;67706;51.074;-1.796;2023-11-19T04:51:44;14.05;;;2.17;;
78410;SDS011;67706;51.074;-1.796;2023-11-19T04:54:12;16.25;;;3.05;;
78410;SDS011;67706;51.074;-1.796;2023-11-19T04:56:39;15.98;;;2.45;;
78410;SDS011;67706;51.074;-1.796;2023-11-19T04:59:06;9.40;;;1.95;;
78410;SDS011;67706;51.074;-1.796;2023-11-19T05:01:34;14.20;;;1.80;;
78410;SDS011;67706;51.074;-1.796;2023-11-19T05:04:02;14.55;;;1.83;;
78410;SDS011;67706;51.074;-1.796;2023-11-19T05:06:29;8.60;;;2.13;;
78410;SDS011;67706;51.074;-1.796;2023-11-19T05:08:56;8.98;;;2.25;;
78410;SDS011;67706;51.074;-1.796;2023-11-19T05:11:26;15.40;;;2.55;;
78410;SDS011;67706;51.074;-1.796;2023-11-19T05:13:53;19.05;;;2.50;;
78410;SDS011;67706;51.074;-1.796;2023-11-19T05:16:19;12.20;;;2.05;;
78410;SDS011;67706;51.074;-1.796;2023-11-19T05:18:46;9.20;;;1.20;;
78410;SDS011;67706;51.074;-1.796;2023-11-19T05:21:15;9.98;;;1.45;;
78410;SDS011;67706;51.074;-1.796;2023-11-19T05:23:42;10.98;;;1.38;;
78410;SDS011;67706;51.074;-1.796;2023-11-19T05:26:09;9.45;;;2.35;;
78410;SDS011;67706;51.074;-1.796;2023-11-19T05:28:43;10.40;;;1.70;;
78410;SDS011;67706;51.074;-1.796;2023-11-19T05:31:09;7.60;;;1.38;;
78410;SDS011;67706;51.074;-1.796;2023-11-19T05:33:36;14.52;;;2.47;;
78410;SDS011;67706;51.074;-1.796;2023-11-19T05:36:03;6.20;;;1.38;;
78410;SDS011;67706;51.074;-1.796;2023-11-19T05:38:31;11.50;;;2.10;;
78410;SDS011;67706;51.074;-1.796;2023-11-19T05:40:58;14.32;;;2.05;;
78410;SDS011;67706;51.074;-1.796;2023-11-19T05:43:25;13.30;;;2.22;;
78410;SDS011;67706;51.074;-1.796;2023-11-19T05:45:51;14.60;;;1.85;;
78410;SDS011;67706;51.074;-1.796;2023-11-19T05:48:18;7.85;;;0.90;;
78410;SDS011;67706;51.074;-1.796;2023-11-19T05:50:45;7.10;;;1.58;;
78410;SDS011;67706;51.074;-1.796;2023-11-19T05:53:14;10.48;;;1.50;;
78410;SDS011;67706;51.074;-1.796;2023-11-19T05:55:43;8.93;;;1.38;;
78410;SDS011;67706;51.074;-1.796;2023-11-19T05:58:14;6.25;;;1.02;;
78410;SDS011;67706;51.074;-1.796;2023-11-19T06:00:41;8.65;;;1.60;;
78410;SDS011;67706;51.074;-1.796;2023-11-19T06:03:08;10.88;;;1.80;;
78410;SDS011;67706;51.074;-1.796;2023-11-19T06:05:35;14.75;;;2.25;;
78410;SDS011;67706;51.074;-1.796;2023-11-19T06:08:01;8.80;;;2.13;;
78410;SDS011;67706;51.074;-1.796;2023-11-19T06:10:28;11.95;;;1.75;;
78410;SDS011;67706;51.074;-1.796;2023-11-19T06:12:58;8.43;;;1.17;;
78410;SDS011;67706;51.074;-1.796;2023-11-19T06:15:25;14.93;;;1.77;;
78410;SDS011;67706;51.074;-1.796;2023-11-19T06:17:52;10.38;;;1.42;;
78410;SDS011;67706;51.074;-1.796;2023-11-19T06:20:19;10.82;;;1.60;;
78410;SDS011;67706;51.074;-1.796;2023-11-19T06:22:46;8.90;;;1.38;;
78410;SDS011;67706;51.074;-1.796;2023-11-19T06:25:13;12.73;;;1.73;;
78410;SDS011;67706;51.074;-1.796;2023-11-19T06:27:41;8.18;;;1.52;;
78410;SDS011;67706;51.074;-1.796;2023-11-19T06:30:09;11.75;;;1.88;;
78410;SDS011;67706;51.074;-1.796;2023-11-19T06:32:37;9.73;;;1.58;;
78410;SDS011;67706;51.074;-1.796;2023-11-19T06:35:04;17.23;;;1.45;;
78410;SDS011;67706;51.074;-1.796;2023-11-19T06:37:31;7.03;;;1.15;;
78410;SDS011;67706;51.074;-1.796;2023-11-19T06:39:58;8.10;;;1.50;;
78410;SDS011;67706;51.074;-1.796;2023-11-19T06:42:24;4.80;;;1.40;;
78410;SDS011;67706;51.074;-1.796;2023-11-19T06:44:51;11.57;;;1.63;;
78410;SDS011;67706;51.074;-1.796;2023-11-19T06:47:19;13.02;;;2.22;;
78410;SDS011;67706;51.074;-1.796;2023-11-19T06:49:46;12.23;;;1.85;;
78410;SDS011;67706;51.074;-1.796;2023-11-19T06:52:12;10.88;;;1.23;;
78410;SDS011;67706;51.074;-1.796;2023-11-19T06:54:39;6.90;;;1.10;;
78410;SDS011;67706;51.074;-1.796;2023-11-19T06:57:06;6.93;;;1.20;;
78410;SDS011;67706;51.074;-1.796;2023-11-19T06:59:34;9.75;;;2.25;;
78410;SDS011;67706;51.074;-1.796;2023-11-19T07:02:01;5.60;;;1.52;;
78410;SDS011;67706;51.074;-1.796;2023-11-19T07:04:29;7.68;;;1.05;;
78410;SDS011;67706;51.074;-1.796;2023-11-19T07:06:55;3.45;;;0.70;;
78410;SDS011;67706;51.074;-1.796;2023-11-19T07:09:22;7.47;;;1.40;;
78410;SDS011;67706;51.074;-1.796;2023-11-19T07:11:49;7.22;;;1.70;;
78410;SDS011;67706;51.074;-1.796;2023-11-19T07:14:17;5.97;;;0.95;;
78410;SDS011;67706;51.074;-1.796;2023-11-19T07:16:44;8.05;;;0.82;;
78410;SDS011;67706;51.074;-1.796;2023-11-19T07:19:12;17.23;;;2.08;;
78410;SDS011;67706;51.074;-1.796;2023-11-19T07:21:42;8.95;;;1.30;;
78410;SDS011;67706;51.074;-1.796;2023-11-19T07:24:10;12.85;;;1.70;;
78410;SDS011;67706;51.074;-1.796;2023-11-19T07:26:40;15.40;;;1.70;;
78410;SDS011;67706;51.074;-1.796;2023-11-19T07:29:08;14.57;;;2.13;;
78410;SDS011;67706;51.074;-1.796;2023-11-19T07:31:35;15.85;;;1.60;;
78410;SDS011;67706;51.074;-1.796;2023-11-19T07:34:02;8.68;;;1.30;;
78410;SDS011;67706;51.074;-1.796;2023-11-19T07:36:28;13.13;;;2.88;;
78410;SDS011;67706;51.074;-1.796;2023-11-19T07:38:57;5.72;;;0.90;;
78410;SDS011;67706;51.074;-1.796;2023-11-19T07:41:24;8.43;;;1.48;;
78410;SDS011;67706;51.074;-1.796;2023-11-19T07:43:51;13.57;;;1.88;;
78410;SDS011;67706;51.074;-1.796;2023-11-19T07:46:18;14.35;;;2.20;;
78410;SDS011;67706;51.074;-1.796;2023-11-19T07:48:45;9.38;;;1.30;;
78410;SDS011;67706;51.074;-1.796;2023-11-19T07:51:12;9.65;;;1.70;;
78410;SDS011;67706;51.074;-1.796;2023-11-19T07:53:40;7.88;;;1.65;;
78410;SDS011;67706;51.074;-1.796;2023-11-19T07:56:08;16.25;;;2.08;;
78410;SDS011;67706;51.074;-1.796;2023-11-19T07:58:35;15.27;;;1.60;;
78410;SDS011;67706;51.074;-1.796;2023-11-19T08:01:02;8.82;;;1.92;;
78410;SDS011;67706;51.074;-1.796;2023-11-19T08:03:29;13.13;;;1.85;;
78410;SDS011;67706;51.074;-1.796;2023-11-19T08:05:56;10.75;;;2.15;;
78410;SDS011;67706;51.074;-1.796;2023-11-19T08:08:22;20.38;;;2.40;;
78410;SDS011;67706;51.074;-1.796;2023-11-19T08:10:49;13.55;;;1.85;;
78410;SDS011;67706;51.074;-1.796;2023-11-19T08:13:18;10.63;;;1.83;;
78410;SDS011;67706;51.074;-1.796;2023-11-19T08:15:44;10.48;;;1.48;;
78410;SDS011;67706;51.074;-1.796;2023-11-19T08:18:12;16.35;;;2.22;;
78410;SDS011;67706;51.074;-1.796;2023-11-19T08:20:39;12.57;;;2.10;;
78410;SDS011;67706;51.074;-1.796;2023-11-19T08:23:06;15.95;;;1.83;;
78410;SDS011;67706;51.074;-1.796;2023-11-19T08:25:33;5.78;;;1.98;;
78410;SDS011;67706;51.074;-1.796;2023-11-19T08:28:00;7.63;;;1.30;;
78410;SDS011;67706;51.074;-1.796;2023-11-19T08:30:29;12.82;;;2.53;;
78410;SDS011;67706;51.074;-1.796;2023-11-19T08:32:56;14.15;;;2.42;;
78410;SDS011;67706;51.074;-1.796;2023-11-19T08:35:23;9.20;;;2.63;;
78410;SDS011;67706;51.074;-1.796;2023-11-19T08:37:50;9.43;;;2.20;;
78410;SDS011;67706;51.074;-1.796;2023-11-19T08:40:17;11.90;;;1.55;;
78410;SDS011;67706;51.074;-1.796;2023-11-19T08:42:45;7.93;;;1.58;;
78410;SDS011;67706;51.074;-1.796;2023-11-19T08:45:11;5.72;;;0.68;;
78410;SDS011;67706;51.074;-1.796;2023-11-19T08:47:39;9.50;;;1.90;;
78410;SDS011;67706;51.074;-1.796;2023-11-19T08:50:06;13.05;;;1.35;;
78410;SDS011;67706;51.074;-1.796;2023-11-19T08:52:33;11.65;;;1.77;;
78410;SDS011;67706;51.074;-1.796;2023-11-19T08:55:00;11.60;;;2.40;;
78410;SDS011;67706;51.074;-1.796;2023-11-19T08:57:26;8.07;;;1.63;;
78410;SDS011;67706;51.074;-1.796;2023-11-19T08:59:53;9.25;;;1.20;;
78410;SDS011;67706;51.074;-1.796;2023-11-19T09:02:19;13.02;;;2.00;;
78410;SDS011;67706;51.074;-1.796;2023-11-19T09:04:48;8.93;;;1.75;;
78410;SDS011;67706;51.074;-1.796;2023-11-19T09:07:14;13.50;;;1.65;;
78410;SDS011;67706;51.074;-1.796;2023-11-19T09:09:41;8.77;;;1.67;;
78410;SDS011;67706;51.074;-1.796;2023-11-19T09:12:07;12.77;;;1.63;;
78410;SDS011;67706;51.074;-1.796;2023-11-19T09:14:34;16.52;;;2.45;;
78410;SDS011;67706;51.074;-1.796;2023-11-19T09:17:01;16.85;;;2.05;;
78410;SDS011;67706;51.074;-1.796;2023-11-19T09:19:28;7.95;;;1.55;;
78410;SDS011;67706;51.074;-1.796;2023-11-19T09:21:56;8.02;;;1.38;;
78410;SDS011;67706;51.074;-1.796;2023-11-19T09:24:22;10.88;;;1.83;;
78410;SDS011;67706;51.074;-1.796;2023-11-19T09:26:49;10.75;;;1.95;;
78410;SDS011;67706;51.074;-1.796;2023-11-19T09:29:15;10.65;;;1.45;;
78410;SDS011;67706;51.074;-1.796;2023-11-19T09:31:42;10.73;;;1.40;;
78410;SDS011;67706;51.074;-1.796;2023-11-19T09:34:09;9.57;;;1.45;;
78410;SDS011;67706;51.074;-1.796;2023-11-19T09:36:35;4.63;;;1.30;;
78410;SDS011;67706;51.074;-1.796;2023-11-19T09:39:03;12.05;;;1.85;;
78410;SDS011;67706;51.074;-1.796;2023-11-19T09:41:32;16.08;;;2.08;;
78410;SDS011;67706;51.074;-1.796;2023-11-19T09:43:59;10.00;;;1.90;;
78410;SDS011;67706;51.074;-1.796;2023-11-19T09:46:26;10.02;;;1.67;;
78410;SDS011;67706;51.074;-1.796;2023-11-19T09:48:54;12.88;;;2.17;;
78410;SDS011;67706;51.074;-1.796;2023-11-19T09:51:22;13.77;;;1.85;;
78410;SDS011;67706;51.074;-1.796;2023-11-19T09:53:49;12.82;;;1.92;;
78410;SDS011;67706;51.074;-1.796;2023-11-19T09:56:17;12.73;;;1.85;;
78410;SDS011;67706;51.074;-1.796;2023-11-19T09:58:44;12.98;;;1.85;;
78410;SDS011;67706;51.074;-1.796;2023-11-19T10:01:11;13.65;;;2.03;;
78410;SDS011;67706;51.074;-1.796;2023-11-19T10:03:39;12.52;;;2.60;;
78410;SDS011;67706;51.074;-1.796;2023-11-19T10:06:09;13.85;;;2.42;;
78410;SDS011;67706;51.074;-1.796;2023-11-19T10:08:37;8.48;;;1.65;;
78410;SDS011;67706;51.074;-1.796;2023-11-19T10:11:04;9.48;;;1.90;;
78410;SDS011;67706;51.074;-1.796;2023-11-19T10:13:33;13.38;;;1.95;;
78410;SDS011;67706;51.074;-1.796;2023-11-19T10:16:03;12.20;;;1.75;;
78410;SDS011;67706;51.074;-1.796;2023-11-19T10:18:33;8.95;;;1.15;;
78410;SDS011;67706;51.074;-1.796;2023-11-19T10:21:03;8.90;;;1.63;;
78410;SDS011;67706;51.074;-1.796;2023-11-19T10:23:30;6.88;;;1.77;;
78410;SDS011;67706;51.074;-1.796;2023-11-19T10:26:02;15.88;;;2.13;;
78410;SDS011;67706;51.074;-1.796;2023-11-19T10:28:37;9.95;;;1.38;;
78410;SDS011;67706;51.074;-1.796;2023-11-19T10:31:07;14.90;;;2.30;;
78410;SDS011;67706;51.074;-1.796;2023-11-19T10:33:34;12.20;;;1.50;;
78410;SDS011;67706;51.074;-1.796;2023-11-19T10:36:01;9.80;;;1.42;;
78410;SDS011;67706;51.074;-1.796;2023-11-19T10:38:27;12.52;;;1.75;;
78410;SDS011;67706;51.074;-1.796;2023-11-19T10:40:55;6.93;;;1.75;;
78410;SDS011;67706;51.074;-1.796;2023-11-19T10:43:22;6.97;;;1.52;;
78410;SDS011;67706;51.074;-1.796;2023-11-19T10:45:51;8.30;;;2.28;;
78410;SDS011;67706;51.074;-1.796;2023-11-19T10:48:18;11.43;;;1.85;;
78410;SDS011;67706;51.074;-1.796;2023-11-19T10:50:46;9.57;;;1.55;;
78410;SDS011;67706;51.074;-1.796;2023-11-19T10:53:16;3.85;;;0.70;;
78410;SDS011;67706;51.074;-1.796;2023-11-19T10:55:46;6.55;;;1.42;;
78410;SDS011;67706;51.074;-1.796;2023-11-19T10:58:15;6.38;;;1.25;;
78410;SDS011;67706;51.074;-1.796;2023-11-19T11:00:43;6.35;;;1.20;;
78410;SDS011;67706;51.074;-1.796;2023-11-19T11:03:14;6.82;;;1.65;;
78410;SDS011;67706;51.074;-1.796;2023-11-19T11:05:43;10.52;;;1.20;;
78410;SDS011;67706;51.074;-1.796;2023-11-19T11:08:13;6.50;;;0.82;;
78410;SDS011;67706;51.074;-1.796;2023-11-19T11:10:43;8.18;;;1.25;;
78410;SDS011;67706;51.074;-1.796;2023-11-19T11:13:11;9.88;;;1.35;;
78410;SDS011;67706;51.074;-1.796;2023-11-19T11:15:40;4.95;;;0.85;;
78410;SDS011;67706;51.074;-1.796;2023-11-19T11:18:08;6.10;;;0.80;;
78410;SDS011;67706;51.074;-1.796;2023-11-19T11:20:36;9.50;;;1.40;;
78410;SDS011;67706;51.074;-1.796;2023-11-19T11:26:08;12.50;;;0.95;;
78410;SDS011;67706;51.074;-1.796;2023-11-19T11:28:59;5.72;;;0.80;;
78410;SDS011;67706;51.074;-1.796;2023-11-19T11:31:34;5.18;;;1.30;;
78410;SDS011;67706;51.074;-1.796;2023-11-19T11:34:19;11.18;;;1.27;;
78410;SDS011;67706;51.074;-1.796;2023-11-19T11:37:06;7.60;;;1.20;;
78410;SDS011;67706;51.074;-1.796;2023-11-19T11:39:42;7.53;;;0.98;;
78410;SDS011;67706;51.074;-1.796;2023-11-19T11:44:59;7.40;;;1.15;;
78410;SDS011;67706;51.074;-1.796;2023-11-19T11:47:33;6.85;;;0.82;;
78410;SDS011;67706;51.074;-1.796;2023-11-19T11:50:47;4.97;;;0.85;;
78410;SDS011;67706;51.074;-1.796;2023-11-19T11:53:19;4.47;;;0.93;;
78410;SDS011;67706;51.074;-1.796;2023-11-19T11:55:53;5.88;;;0.98;;
78410;SDS011;67706;51.074;-1.796;2023-11-19T11:58:21;7.10;;;1.60;;
78410;SDS011;67706;51.074;-1.796;2023-11-19T12:00:51;8.25;;;1.08;;
78410;SDS011;67706;51.074;-1.796;2023-11-19T12:03:19;6.40;;;1.63;;
78410;SDS011;67706;51.074;-1.796;2023-11-19T12:05:48;6.53;;;1.15;;
78410;SDS011;67706;51.074;-1.796;2023-11-19T12:08:15;6.25;;;1.00;;
78410;SDS011;67706;51.074;-1.796;2023-11-19T12:10:48;5.13;;;1.15;;
78410;SDS011;67706;51.074;-1.796;2023-11-19T12:13:16;8.15;;;2.10;;
78410;SDS011;67706;51.074;-1.796;2023-11-19T12:18:36;4.30;;;2.00;;
78410;SDS011;67706;51.074;-1.796;2023-11-19T12:21:06;7.88;;;1.80;;
78410;SDS011;67706;51.074;-1.796;2023-11-19T12:23:34;10.77;;;2.00;;
78410;SDS011;67706;51.074;-1.796;2023-11-19T12:26:03;3.00;;;0.68;;
78410;SDS011;67706;51.074;-1.796;2023-11-19T12:28:30;7.50;;;1.10;;
78410;SDS011;67706;51.074;-1.796;2023-11-19T12:31:07;4.45;;;1.30;;
78410;SDS011;67706;51.074;-1.796;2023-11-19T12:33:35;28.52;;;11.65;;
78410;SDS011;67706;51.074;-1.796;2023-11-19T12:36:03;5.50;;;1.13;;
78410;SDS011;67706;51.074;-1.796;2023-11-19T12:38:31;7.50;;;1.48;;
78410;SDS011;67706;51.074;-1.796;2023-11-19T12:41:05;9.57;;;1.08;;
78410;SDS011;67706;51.074;-1.796;2023-11-19T12:43:33;4.97;;;0.98;;
78410;SDS011;67706;51.074;-1.796;2023-11-19T12:46:01;3.75;;;1.10;;
78410;SDS011;67706;51.074;-1.796;2023-11-19T12:48:28;3.78;;;0.82;;
78410;SDS011;67706;51.074;-1.796;2023-11-19T12:50:55;3.63;;;0.70;;
78410;SDS011;67706;51.074;-1.796;2023-11-19T12:53:23;5.53;;;1.08;;
78410;SDS011;67706;51.074;-1.796;2023-11-19T12:55:50;7.13;;;0.75;;
78410;SDS011;67706;51.074;-1.796;2023-11-19T12:58:32;3.83;;;0.43;;
78410;SDS011;67706;51.074;-1.796;2023-11-19T13:01:00;5.60;;;1.23;;
78410;SDS011;67706;51.074;-1.796;2023-11-19T13:03:31;5.20;;;1.35;;
78410;SDS011;67706;51.074;-1.796;2023-11-19T13:06:02;6.07;;;0.98;;
78410;SDS011;67706;51.074;-1.796;2023-11-19T13:08:35;3.03;;;0.47;;
78410;SDS011;67706;51.074;-1.796;2023-11-19T13:11:03;2.08;;;0.60;;
78410;SDS011;67706;51.074;-1.796;2023-11-19T13:13:32;1.55;;;0.30;;
78410;SDS011;67706;51.074;-1.796;2023-11-19T13:16:03;0.60;;;0.43;;
78410;SDS011;67706;51.074;-1.796;2023-11-19T13:18:31;1.38;;;0.55;;
78410;SDS011;67706;51.074;-1.796;2023-11-19T13:20:58;4.25;;;0.63;;
78410;SDS011;67706;51.074;-1.796;2023-11-19T13:23:26;2.85;;;0.47;;
78410;SDS011;67706;51.074;-1.796;2023-11-19T13:25:52;4.97;;;0.80;;
78410;SDS011;67706;51.074;-1.796;2023-11-19T13:28:19;2.25;;;0.30;;
78410;SDS011;67706;51.074;-1.796;2023-11-19T13:30:47;2.58;;;0.75;;
78410;SDS011;67706;51.074;-1.796;2023-11-19T13:33:14;1.27;;;0.40;;
78410;SDS011;67706;51.074;-1.796;2023-11-19T13:35:41;4.18;;;0.75;;
78410;SDS011;67706;51.074;-1.796;2023-11-19T13:38:08;3.38;;;0.28;;
78410;SDS011;67706;51.074;-1.796;2023-11-19T13:40:35;0.77;;;0.40;;
78410;SDS011;67706;51.074;-1.796;2023-11-19T13:43:02;0.35;;;0.20;;
78410;SDS011;67706;51.074;-1.796;2023-11-19T13:45:28;5.72;;;0.40;;
78410;SDS011;67706;51.074;-1.796;2023-11-19T13:47:56;0.95;;;0.70;;
78410;SDS011;67706;51.074;-1.796;2023-11-19T13:50:23;2.70;;;1.30;;
78410;SDS011;67706;51.074;-1.796;2023-11-19T13:52:50;0.75;;;0.20;;
78410;SDS011;67706;51.074;-1.796;2023-11-19T13:55:16;1.70;;;0.40;;
78410;SDS011;67706;51.074;-1.796;2023-11-19T13:57:43;1.50;;;0.30;;
78410;SDS011;67706;51.074;-1.796;2023-11-19T14:00:11;0.50;;;0.20;;
78410;SDS011;67706;51.074;-1.796;2023-11-19T14:02:41;5.07;;;2.33;;
78410;SDS011;67706;51.074;-1.796;2023-11-19T14:05:10;3.72;;;1.80;;
78410;SDS011;67706;51.074;-1.796;2023-11-19T14:07:37;0.50;;;0.10;;
78410;SDS011;67706;51.074;-1.796;2023-11-19T14:10:04;1.00;;;0.22;;
78410;SDS011;67706;51.074;-1.796;2023-11-19T14:12:32;11.15;;;6.38;;
78410;SDS011;67706;51.074;-1.796;2023-11-19T14:14:59;2.08;;;0.30;;
78410;SDS011;67706;51.074;-1.796;2023-11-19T14:17:26;3.13;;;0.40;;
78410;SDS011;67706;51.074;-1.796;2023-11-19T14:19:52;2.63;;;0.60;;
78410;SDS011;67706;51.074;-1.796;2023-11-19T14:22:21;1.02;;;0.57;;
78410;SDS011;67706;51.074;-1.796;2023-11-19T14:24:47;2.10;;;0.50;;
78410;SDS011;67706;51.074;-1.796;2023-11-19T14:27:14;2.20;;;0.60;;
78410;SDS011;67706;51.074;-1.796;2023-11-19T14:29:42;5.45;;;0.90;;
78410;SDS011;67706;51.074;-1.796;2023-11-19T14:32:09;4.47;;;1.38;;
78410;SDS011;67706;51.074;-1.796;2023-11-19T14:34:36;2.38;;;0.35;;
78410;SDS011;67706;51.074;-1.796;2023-11-19T14:37:03;0.60;;;0.30;;
78410;SDS011;67706;51.074;-1.796;2023-11-19T14:39:31;0.17;;;0.17;;